sensor_id;sensor_type;location;lat;lon;timestamp;P1;durP1;ratioP1;P2;durP2;ratioP2
19191;SDS011;9728;48.194;16.346;2023-04-27T00:03:37;3.40;;;1.65;;
19191;SDS011;9728;48.194;16.346;2023-04-27T00:08:41;1.83;;;1.55;;
19191;SDS011;9728;48.194;16.346;2023-04-27T00:13:45;2.50;;;1.90;;
19191;SDS011;9728;48.194;16.346;2023-04-27T00:18:50;3.33;;;1.80;;
19191;SDS011;9728;48.194;16.346;2023-04-27T00:23:54;3.20;;;1.88;;
19191;SDS011;9728;48.194;16.346;2023-04-27T00:28:57;2.97;;;1.80;;
19191;SDS011;9728;48.194;16.346;2023-04-27T00:34:02;3.50;;;1.48;;
19191;SDS011;9728;48.194;16.346;2023-04-27T00:39:06;2.45;;;1.50;;
19191;SDS011;9728;48.194;16.346;2023-04-27T00:44:10;2.50;;;1.70;;
19191;SDS011;9728;48.194;16.346;2023-04-27T00:49:15;2.65;;;1.48;;
19191;SDS011;9728;48.194;16.346;2023-04-27T00:54:19;3.03;;;1.60;;
19191;SDS011;9728;48.194;16.346;2023-04-27T00:59:22;2.50;;;1.52;;
19191;SDS011;9728;48.194;16.346;2023-04-27T01:04:28;4.70;;;1.70;;
19191;SDS011;9728;48.194;16.346;2023-04-27T01:09:32;1.85;;;1.60;;
19191;SDS011;9728;48.194;16.346;2023-04-27T01:14:36;3.50;;;1.60;;
19191;SDS011;9728;48.194;16.346;2023-04-27T01:19:41;2.38;;;1.48;;
19191;SDS011;9728;48.194;16.346;2023-04-27T01:24:47;1.83;;;1.40;;
19191;SDS011;9728;48.194;16.346;2023-04-27T01:29:50;2.53;;;1.38;;
19191;SDS011;9728;48.194;16.346;2023-04-27T01:34:54;3.38;;;1.50;;
19191;SDS011;9728;48.194;16.346;2023-04-27T01:40:00;2.40;;;1.33;;
19191;SDS011;9728;48.194;16.346;2023-04-27T01:45:05;1.83;;;1.20;;
19191;SDS011;9728;48.194;16.346;2023-04-27T01:50:09;3.05;;;1.60;;
19191;SDS011;9728;48.194;16.346;2023-04-27T01:55:14;1.95;;;1.38;;
19191;SDS011;9728;48.194;16.346;2023-04-27T02:00:18;1.45;;;1.20;;
19191;SDS011;9728;48.194;16.346;2023-04-27T02:05:21;1.67;;;1.42;;
19191;SDS011;9728;48.194;16.346;2023-04-27T02:10:27;1.90;;;1.30;;
19191;SDS011;9728;48.194;16.346;2023-04-27T02:15:31;2.05;;;1.50;;
19191;SDS011;9728;48.194;16.346;2023-04-27T02:20:35;1.90;;;1.25;;
19191;SDS011;9728;48.194;16.346;2023-04-27T02:25:40;2.00;;;1.40;;
19191;SDS011;9728;48.194;16.346;2023-04-27T02:30:47;1.63;;;1.27;;
19191;SDS011;9728;48.194;16.346;2023-04-27T02:35:50;1.20;;;1.10;;
19191;SDS011;9728;48.194;16.346;2023-04-27T02:40:56;1.75;;;1.30;;
19191;SDS011;9728;48.194;16.346;2023-04-27T02:46:01;1.73;;;1.23;;
19191;SDS011;9728;48.194;16.346;2023-04-27T02:51:04;2.17;;;1.42;;
19191;SDS011;9728;48.194;16.346;2023-04-27T02:56:09;2.20;;;1.58;;
19191;SDS011;9728;48.194;16.346;2023-04-27T03:01:13;3.40;;;1.50;;
19191;SDS011;9728;48.194;16.346;2023-04-27T03:06:17;3.08;;;1.40;;
19191;SDS011;9728;48.194;16.346;2023-04-27T03:11:22;3.92;;;1.83;;
19191;SDS011;9728;48.194;16.346;2023-04-27T03:16:26;2.42;;;1.50;;
19191;SDS011;9728;48.194;16.346;2023-04-27T03:21:30;2.67;;;1.50;;
19191;SDS011;9728;48.194;16.346;2023-04-27T03:26:35;2.25;;;1.40;;
19191;SDS011;9728;48.194;16.346;2023-04-27T03:31:38;3.53;;;1.92;;
19191;SDS011;9728;48.194;16.346;2023-04-27T03:36:42;2.38;;;1.35;;
19191;SDS011;9728;48.194;16.346;2023-04-27T03:41:47;2.10;;;1.50;;
19191;SDS011;9728;48.194;16.346;2023-04-27T03:46:50;1.45;;;1.25;;
19191;SDS011;9728;48.194;16.346;2023-04-27T03:51:54;3.17;;;1.40;;
19191;SDS011;9728;48.194;16.346;2023-04-27T03:56:59;3.42;;;1.40;;
19191;SDS011;9728;48.194;16.346;2023-04-27T04:02:03;2.65;;;1.45;;
19191;SDS011;9728;48.194;16.346;2023-04-27T04:07:06;3.03;;;1.48;;
19191;SDS011;9728;48.194;16.346;2023-04-27T04:12:12;2.83;;;1.42;;
19191;SDS011;9728;48.194;16.346;2023-04-27T04:17:15;2.53;;;1.50;;
19191;SDS011;9728;48.194;16.346;2023-04-27T04:22:20;1.83;;;1.45;;
19191;SDS011;9728;48.194;16.346;2023-04-27T04:27:25;2.70;;;1.45;;
19191;SDS011;9728;48.194;16.346;2023-04-27T04:32:29;2.83;;;1.80;;
19191;SDS011;9728;48.194;16.346;2023-04-27T04:37:34;2.95;;;1.60;;
19191;SDS011;9728;48.194;16.346;2023-04-27T04:42:39;1.95;;;1.52;;
19191;SDS011;9728;48.194;16.346;2023-04-27T04:47:43;2.42;;;1.70;;
19191;SDS011;9728;48.194;16.346;2023-04-27T04:52:50;2.30;;;1.60;;
19191;SDS011;9728;48.194;16.346;2023-04-27T04:57:55;3.35;;;1.70;;
19191;SDS011;9728;48.194;16.346;2023-04-27T05:03:01;2.92;;;1.63;;
19191;SDS011;9728;48.194;16.346;2023-04-27T05:08:05;2.78;;;1.70;;
19191;SDS011;9728;48.194;16.346;2023-04-27T05:13:10;5.38;;;2.00;;
19191;SDS011;9728;48.194;16.346;2023-04-27T05:18:14;2.55;;;1.88;;
19191;SDS011;9728;48.194;16.346;2023-04-27T05:23:17;3.70;;;1.88;;
19191;SDS011;9728;48.194;16.346;2023-04-27T05:28:22;2.38;;;1.63;;
19191;SDS011;9728;48.194;16.346;2023-04-27T05:33:26;5.07;;;1.55;;
19191;SDS011;9728;48.194;16.346;2023-04-27T05:38:29;2.88;;;1.75;;
19191;SDS011;9728;48.194;16.346;2023-04-27T05:43:35;3.30;;;2.00;;
19191;SDS011;9728;48.194;16.346;2023-04-27T05:48:39;3.35;;;1.95;;
19191;SDS011;9728;48.194;16.346;2023-04-27T05:53:43;3.35;;;1.95;;
19191;SDS011;9728;48.194;16.346;2023-04-27T05:58:48;3.35;;;1.98;;
19191;SDS011;9728;48.194;16.346;2023-04-27T06:03:52;4.53;;;2.00;;
19191;SDS011;9728;48.194;16.346;2023-04-27T06:08:56;6.40;;;2.15;;
19191;SDS011;9728;48.194;16.346;2023-04-27T06:14:01;3.20;;;1.88;;
19191;SDS011;9728;48.194;16.346;2023-04-27T06:19:04;4.80;;;2.10;;
19191;SDS011;9728;48.194;16.346;2023-04-27T06:24:08;3.75;;;2.00;;
19191;SDS011;9728;48.194;16.346;2023-04-27T06:29:13;5.80;;;2.50;;
19191;SDS011;9728;48.194;16.346;2023-04-27T06:34:17;2.83;;;1.90;;
19191;SDS011;9728;48.194;16.346;2023-04-27T06:39:21;3.38;;;2.00;;
19191;SDS011;9728;48.194;16.346;2023-04-27T06:44:26;2.17;;;2.00;;
19191;SDS011;9728;48.194;16.346;2023-04-27T06:49:29;3.75;;;1.92;;
19191;SDS011;9728;48.194;16.346;2023-04-27T06:54:33;3.80;;;1.90;;
19191;SDS011;9728;48.194;16.346;2023-04-27T06:59:38;2.10;;;1.60;;
19191;SDS011;9728;48.194;16.346;2023-04-27T07:04:41;2.03;;;1.42;;
19191;SDS011;9728;48.194;16.346;2023-04-27T07:09:45;4.32;;;1.80;;
19191;SDS011;9728;48.194;16.346;2023-04-27T07:14:50;2.95;;;1.80;;
19191;SDS011;9728;48.194;16.346;2023-04-27T07:19:53;3.05;;;1.45;;
19191;SDS011;9728;48.194;16.346;2023-04-27T07:24:57;3.45;;;1.50;;
19191;SDS011;9728;48.194;16.346;2023-04-27T07:30:02;1.52;;;1.38;;
19191;SDS011;9728;48.194;16.346;2023-04-27T07:35:09;2.45;;;1.50;;
19191;SDS011;9728;48.194;16.346;2023-04-27T07:40:14;2.35;;;1.02;;
19191;SDS011;9728;48.194;16.346;2023-04-27T07:45:19;2.60;;;1.35;;
19191;SDS011;9728;48.194;16.346;2023-04-27T07:50:23;2.05;;;1.10;;
19191;SDS011;9728;48.194;16.346;2023-04-27T07:55:27;2.33;;;1.20;;
19191;SDS011;9728;48.194;16.346;2023-04-27T08:00:32;2.78;;;1.17;;
19191;SDS011;9728;48.194;16.346;2023-04-27T08:05:35;2.75;;;1.38;;
19191;SDS011;9728;48.194;16.346;2023-04-27T08:10:39;3.78;;;1.38;;
19191;SDS011;9728;48.194;16.346;2023-04-27T08:15:44;2.08;;;1.30;;
19191;SDS011;9728;48.194;16.346;2023-04-27T08:20:48;3.25;;;1.48;;
19191;SDS011;9728;48.194;16.346;2023-04-27T08:25:52;2.13;;;1.33;;
19191;SDS011;9728;48.194;16.346;2023-04-27T08:30:57;4.20;;;1.40;;
19191;SDS011;9728;48.194;16.346;2023-04-27T08:36:01;2.30;;;1.27;;
19191;SDS011;9728;48.194;16.346;2023-04-27T08:41:04;3.88;;;1.40;;
19191;SDS011;9728;48.194;16.346;2023-04-27T08:46:23;2.55;;;1.33;;
19191;SDS011;9728;48.194;16.346;2023-04-27T08:51:27;1.60;;;1.50;;
19191;SDS011;9728;48.194;16.346;2023-04-27T08:56:32;4.05;;;1.40;;
19191;SDS011;9728;48.194;16.346;2023-04-27T09:01:42;2.65;;;1.30;;
19191;SDS011;9728;48.194;16.346;2023-04-27T09:06:45;3.10;;;1.50;;
19191;SDS011;9728;48.194;16.346;2023-04-27T09:11:50;1.70;;;1.08;;
19191;SDS011;9728;48.194;16.346;2023-04-27T09:16:56;2.65;;;1.30;;
19191;SDS011;9728;48.194;16.346;2023-04-27T09:22:04;2.95;;;1.30;;
19191;SDS011;9728;48.194;16.346;2023-04-27T09:27:08;2.55;;;1.30;;
19191;SDS011;9728;48.194;16.346;2023-04-27T09:32:22;1.40;;;1.20;;
19191;SDS011;9728;48.194;16.346;2023-04-27T09:37:26;3.25;;;1.23;;
19191;SDS011;9728;48.194;16.346;2023-04-27T09:42:30;2.65;;;1.55;;
19191;SDS011;9728;48.194;16.346;2023-04-27T09:47:35;1.88;;;1.65;;
19191;SDS011;9728;48.194;16.346;2023-04-27T09:52:39;2.55;;;1.20;;
19191;SDS011;9728;48.194;16.346;2023-04-27T09:57:45;2.58;;;1.27;;
19191;SDS011;9728;48.194;16.346;2023-04-27T10:02:57;2.30;;;1.17;;
19191;SDS011;9728;48.194;16.346;2023-04-27T10:08:04;1.52;;;1.10;;
19191;SDS011;9728;48.194;16.346;2023-04-27T10:13:08;2.13;;;1.77;;
19191;SDS011;9728;48.194;16.346;2023-04-27T10:18:27;1.50;;;1.30;;
19191;SDS011;9728;48.194;16.346;2023-04-27T10:23:32;2.38;;;1.40;;
19191;SDS011;9728;48.194;16.346;2023-04-27T10:28:37;3.28;;;1.45;;
19191;SDS011;9728;48.194;16.346;2023-04-27T10:33:43;2.05;;;1.33;;
19191;SDS011;9728;48.194;16.346;2023-04-27T10:38:47;1.58;;;1.27;;
19191;SDS011;9728;48.194;16.346;2023-04-27T10:44:12;1.90;;;1.42;;
19191;SDS011;9728;48.194;16.346;2023-04-27T10:49:17;3.47;;;1.58;;
19191;SDS011;9728;48.194;16.346;2023-04-27T10:54:20;4.10;;;2.08;;
19191;SDS011;9728;48.194;16.346;2023-04-27T10:59:28;2.42;;;1.60;;
19191;SDS011;9728;48.194;16.346;2023-04-27T11:04:37;1.73;;;1.40;;
19191;SDS011;9728;48.194;16.346;2023-04-27T11:09:42;3.17;;;1.63;;
19191;SDS011;9728;48.194;16.346;2023-04-27T11:14:45;4.10;;;1.60;;
19191;SDS011;9728;48.194;16.346;2023-04-27T11:19:50;6.15;;;2.38;;
19191;SDS011;9728;48.194;16.346;2023-04-27T11:24:54;4.25;;;2.05;;
19191;SDS011;9728;48.194;16.346;2023-04-27T11:29:58;3.40;;;1.60;;
19191;SDS011;9728;48.194;16.346;2023-04-27T11:35:03;3.67;;;1.83;;
19191;SDS011;9728;48.194;16.346;2023-04-27T11:40:07;2.92;;;1.90;;
19191;SDS011;9728;48.194;16.346;2023-04-27T11:45:11;2.88;;;2.05;;
19191;SDS011;9728;48.194;16.346;2023-04-27T11:50:16;2.88;;;1.92;;
19191;SDS011;9728;48.194;16.346;2023-04-27T11:55:20;3.30;;;2.03;;
19191;SDS011;9728;48.194;16.346;2023-04-27T12:00:25;2.20;;;1.92;;
19191;SDS011;9728;48.194;16.346;2023-04-27T12:05:30;2.50;;;1.83;;
19191;SDS011;9728;48.194;16.346;2023-04-27T12:10:34;2.10;;;1.75;;
19191;SDS011;9728;48.194;16.346;2023-04-27T12:15:38;3.20;;;1.92;;
19191;SDS011;9728;48.194;16.346;2023-04-27T12:20:43;1.90;;;1.70;;
19191;SDS011;9728;48.194;16.346;2023-04-27T12:25:46;2.42;;;1.73;;
19191;SDS011;9728;48.194;16.346;2023-04-27T12:30:50;1.98;;;1.77;;
19191;SDS011;9728;48.194;16.346;2023-04-27T12:35:55;2.30;;;1.58;;
19191;SDS011;9728;48.194;16.346;2023-04-27T12:40:58;2.72;;;1.73;;
19191;SDS011;9728;48.194;16.346;2023-04-27T12:46:04;5.15;;;2.00;;
19191;SDS011;9728;48.194;16.346;2023-04-27T12:51:09;2.83;;;2.08;;
19191;SDS011;9728;48.194;16.346;2023-04-27T12:56:13;1.52;;;1.42;;
19191;SDS011;9728;48.194;16.346;2023-04-27T13:01:17;2.60;;;1.38;;
19191;SDS011;9728;48.194;16.346;2023-04-27T13:06:24;5.13;;;1.80;;
19191;SDS011;9728;48.194;16.346;2023-04-27T13:11:28;1.83;;;1.55;;
19191;SDS011;9728;48.194;16.346;2023-04-27T13:16:32;2.70;;;1.80;;
19191;SDS011;9728;48.194;16.346;2023-04-27T13:21:37;2.92;;;1.42;;
19191;SDS011;9728;48.194;16.346;2023-04-27T13:26:41;2.13;;;1.60;;
19191;SDS011;9728;48.194;16.346;2023-04-27T13:31:45;3.17;;;1.67;;
19191;SDS011;9728;48.194;16.346;2023-04-27T13:36:50;2.50;;;1.50;;
19191;SDS011;9728;48.194;16.346;2023-04-27T13:41:54;2.80;;;1.50;;
19191;SDS011;9728;48.194;16.346;2023-04-27T13:46:58;2.53;;;1.45;;
19191;SDS011;9728;48.194;16.346;2023-04-27T13:52:03;1.65;;;1.10;;
19191;SDS011;9728;48.194;16.346;2023-04-27T13:57:07;2.40;;;1.15;;
19191;SDS011;9728;48.194;16.346;2023-04-27T14:02:11;1.48;;;1.00;;
19191;SDS011;9728;48.194;16.346;2023-04-27T14:07:16;1.95;;;1.20;;
19191;SDS011;9728;48.194;16.346;2023-04-27T14:12:20;2.00;;;1.02;;
19191;SDS011;9728;48.194;16.346;2023-04-27T14:17:23;2.45;;;1.30;;
19191;SDS011;9728;48.194;16.346;2023-04-27T14:22:28;2.20;;;1.50;;
19191;SDS011;9728;48.194;16.346;2023-04-27T14:27:32;2.05;;;1.23;;
19191;SDS011;9728;48.194;16.346;2023-04-27T14:32:36;3.35;;;1.50;;
19191;SDS011;9728;48.194;16.346;2023-04-27T14:37:41;2.17;;;1.30;;
19191;SDS011;9728;48.194;16.346;2023-04-27T14:42:46;1.92;;;1.30;;
19191;SDS011;9728;48.194;16.346;2023-04-27T14:47:50;1.77;;;1.20;;
19191;SDS011;9728;48.194;16.346;2023-04-27T14:52:55;2.30;;;1.20;;
19191;SDS011;9728;48.194;16.346;2023-04-27T14:57:59;2.17;;;1.10;;
19191;SDS011;9728;48.194;16.346;2023-04-27T15:03:03;2.53;;;1.23;;
19191;SDS011;9728;48.194;16.346;2023-04-27T15:08:08;2.45;;;1.48;;
19191;SDS011;9728;48.194;16.346;2023-04-27T15:13:12;1.90;;;1.20;;
19191;SDS011;9728;48.194;16.346;2023-04-27T15:18:24;1.85;;;0.95;;
19191;SDS011;9728;48.194;16.346;2023-04-27T15:23:28;1.73;;;1.20;;
19191;SDS011;9728;48.194;16.346;2023-04-27T15:28:31;2.10;;;1.00;;
19191;SDS011;9728;48.194;16.346;2023-04-27T15:33:36;3.35;;;0.93;;
19191;SDS011;9728;48.194;16.346;2023-04-27T15:38:40;1.42;;;0.90;;
19191;SDS011;9728;48.194;16.346;2023-04-27T15:43:44;1.55;;;1.08;;
19191;SDS011;9728;48.194;16.346;2023-04-27T15:48:49;1.17;;;0.85;;
19191;SDS011;9728;48.194;16.346;2023-04-27T15:53:53;1.95;;;1.02;;
19191;SDS011;9728;48.194;16.346;2023-04-27T15:58:56;1.58;;;1.05;;
19191;SDS011;9728;48.194;16.346;2023-04-27T16:04:01;1.75;;;1.20;;
19191;SDS011;9728;48.194;16.346;2023-04-27T16:09:05;1.98;;;1.08;;
19191;SDS011;9728;48.194;16.346;2023-04-27T16:14:11;1.42;;;1.10;;
19191;SDS011;9728;48.194;16.346;2023-04-27T16:19:17;1.48;;;1.17;;
19191;SDS011;9728;48.194;16.346;2023-04-27T16:24:21;1.42;;;1.20;;
19191;SDS011;9728;48.194;16.346;2023-04-27T16:29:24;1.65;;;1.15;;
19191;SDS011;9728;48.194;16.346;2023-04-27T16:34:29;2.25;;;1.60;;
19191;SDS011;9728;48.194;16.346;2023-04-27T16:39:33;2.25;;;1.00;;
19191;SDS011;9728;48.194;16.346;2023-04-27T16:44:37;1.73;;;1.15;;
19191;SDS011;9728;48.194;16.346;2023-04-27T16:49:42;1.10;;;1.00;;
19191;SDS011;9728;48.194;16.346;2023-04-27T16:54:46;1.60;;;1.17;;
19191;SDS011;9728;48.194;16.346;2023-04-27T16:59:49;1.30;;;0.90;;
19191;SDS011;9728;48.194;16.346;2023-04-27T17:04:55;1.63;;;1.10;;
19191;SDS011;9728;48.194;16.346;2023-04-27T17:09:59;2.88;;;1.50;;
19191;SDS011;9728;48.194;16.346;2023-04-27T17:15:04;1.75;;;1.08;;
19191;SDS011;9728;48.194;16.346;2023-04-27T17:20:10;1.77;;;1.30;;
19191;SDS011;9728;48.194;16.346;2023-04-27T17:25:14;1.92;;;1.40;;
19191;SDS011;9728;48.194;16.346;2023-04-27T17:30:18;1.88;;;1.33;;
19191;SDS011;9728;48.194;16.346;2023-04-27T17:35:23;1.42;;;1.30;;
19191;SDS011;9728;48.194;16.346;2023-04-27T17:40:27;2.03;;;1.20;;
19191;SDS011;9728;48.194;16.346;2023-04-27T17:45:31;1.17;;;1.08;;
19191;SDS011;9728;48.194;16.346;2023-04-27T17:50:36;3.33;;;1.27;;
19191;SDS011;9728;48.194;16.346;2023-04-27T17:55:41;2.75;;;1.23;;
19191;SDS011;9728;48.194;16.346;2023-04-27T18:00:48;1.90;;;1.50;;
19191;SDS011;9728;48.194;16.346;2023-04-27T18:05:53;2.30;;;1.50;;
19191;SDS011;9728;48.194;16.346;2023-04-27T18:10:57;4.18;;;1.90;;
19191;SDS011;9728;48.194;16.346;2023-04-27T18:16:01;2.60;;;1.40;;
19191;SDS011;9728;48.194;16.346;2023-04-27T18:21:06;1.85;;;1.35;;
19191;SDS011;9728;48.194;16.346;2023-04-27T18:26:10;2.92;;;1.60;;
19191;SDS011;9728;48.194;16.346;2023-04-27T18:31:14;2.05;;;1.85;;
19191;SDS011;9728;48.194;16.346;2023-04-27T18:36:19;4.07;;;2.10;;
19191;SDS011;9728;48.194;16.346;2023-04-27T18:41:23;4.47;;;2.05;;
19191;SDS011;9728;48.194;16.346;2023-04-27T18:46:27;1.70;;;1.60;;
19191;SDS011;9728;48.194;16.346;2023-04-27T18:51:36;3.30;;;1.50;;
19191;SDS011;9728;48.194;16.346;2023-04-27T18:56:40;3.10;;;1.83;;
19191;SDS011;9728;48.194;16.346;2023-04-27T19:01:45;4.30;;;2.10;;
19191;SDS011;9728;48.194;16.346;2023-04-27T19:06:50;2.85;;;2.10;;
19191;SDS011;9728;48.194;16.346;2023-04-27T19:11:54;3.10;;;1.92;;
19191;SDS011;9728;48.194;16.346;2023-04-27T19:17:03;5.90;;;1.92;;
19191;SDS011;9728;48.194;16.346;2023-04-27T19:22:11;2.63;;;1.88;;
19191;SDS011;9728;48.194;16.346;2023-04-27T19:27:14;2.95;;;1.90;;
19191;SDS011;9728;48.194;16.346;2023-04-27T19:32:22;1.70;;;1.60;;
19191;SDS011;9728;48.194;16.346;2023-04-27T19:37:29;3.55;;;2.03;;
19191;SDS011;9728;48.194;16.346;2023-04-27T19:42:33;2.45;;;1.48;;
19191;SDS011;9728;48.194;16.346;2023-04-27T19:47:37;3.13;;;1.58;;
19191;SDS011;9728;48.194;16.346;2023-04-27T19:52:42;4.05;;;1.65;;
19191;SDS011;9728;48.194;16.346;2023-04-27T19:57:46;3.30;;;1.77;;
19191;SDS011;9728;48.194;16.346;2023-04-27T20:02:50;3.75;;;1.88;;
19191;SDS011;9728;48.194;16.346;2023-04-27T20:07:55;2.20;;;1.90;;
19191;SDS011;9728;48.194;16.346;2023-04-27T20:12:59;2.20;;;1.90;;
19191;SDS011;9728;48.194;16.346;2023-04-27T20:18:03;2.35;;;1.80;;
19191;SDS011;9728;48.194;16.346;2023-04-27T20:23:08;2.03;;;1.42;;
19191;SDS011;9728;48.194;16.346;2023-04-27T20:28:11;2.60;;;1.85;;
19191;SDS011;9728;48.194;16.346;2023-04-27T20:33:15;5.03;;;2.10;;
19191;SDS011;9728;48.194;16.346;2023-04-27T20:38:20;2.65;;;1.95;;
19191;SDS011;9728;48.194;16.346;2023-04-27T20:43:24;2.65;;;2.10;;
19191;SDS011;9728;48.194;16.346;2023-04-27T20:48:27;2.67;;;2.10;;
19191;SDS011;9728;48.194;16.346;2023-04-27T20:53:32;5.28;;;3.17;;
19191;SDS011;9728;48.194;16.346;2023-04-27T20:58:36;5.28;;;2.88;;
19191;SDS011;9728;48.194;16.346;2023-04-27T21:03:39;6.35;;;3.67;;
19191;SDS011;9728;48.194;16.346;2023-04-27T21:08:45;8.23;;;3.90;;
19191;SDS011;9728;48.194;16.346;2023-04-27T21:13:48;7.63;;;4.22;;
19191;SDS011;9728;48.194;16.346;2023-04-27T21:18:52;6.72;;;3.47;;
19191;SDS011;9728;48.194;16.346;2023-04-27T21:23:57;6.70;;;3.22;;
19191;SDS011;9728;48.194;16.346;2023-04-27T21:29:08;5.57;;;3.60;;
19191;SDS011;9728;48.194;16.346;2023-04-27T21:34:12;5.10;;;2.60;;
19191;SDS011;9728;48.194;16.346;2023-04-27T21:39:17;7.53;;;2.88;;
19191;SDS011;9728;48.194;16.346;2023-04-27T21:44:21;5.50;;;2.35;;
19191;SDS011;9728;48.194;16.346;2023-04-27T21:49:24;4.57;;;2.60;;
19191;SDS011;9728;48.194;16.346;2023-04-27T21:54:30;4.97;;;2.80;;
19191;SDS011;9728;48.194;16.346;2023-04-27T21:59:33;4.43;;;2.42;;
19191;SDS011;9728;48.194;16.346;2023-04-27T22:04:37;6.15;;;3.03;;
19191;SDS011;9728;48.194;16.346;2023-04-27T22:09:42;5.18;;;3.10;;
19191;SDS011;9728;48.194;16.346;2023-04-27T22:14:46;6.43;;;3.58;;
19191;SDS011;9728;48.194;16.346;2023-04-27T22:19:49;6.55;;;3.40;;
19191;SDS011;9728;48.194;16.346;2023-04-27T22:24:55;5.32;;;3.42;;
19191;SDS011;9728;48.194;16.346;2023-04-27T22:29:58;7.70;;;3.40;;
19191;SDS011;9728;48.194;16.346;2023-04-27T22:35:02;5.85;;;2.97;;
19191;SDS011;9728;48.194;16.346;2023-04-27T22:40:12;7.03;;;3.75;;
19191;SDS011;9728;48.194;16.346;2023-04-27T22:45:16;6.70;;;3.53;;
19191;SDS011;9728;48.194;16.346;2023-04-27T22:50:20;6.80;;;3.78;;
19191;SDS011;9728;48.194;16.346;2023-04-27T22:55:25;7.55;;;3.55;;
19191;SDS011;9728;48.194;16.346;2023-04-27T23:00:28;5.43;;;3.15;;
19191;SDS011;9728;48.194;16.346;2023-04-27T23:05:32;6.53;;;3.20;;
19191;SDS011;9728;48.194;16.346;2023-04-27T23:10:37;6.47;;;3.40;;
19191;SDS011;9728;48.194;16.346;2023-04-27T23:15:41;4.43;;;3.13;;
19191;SDS011;9728;48.194;16.346;2023-04-27T23:20:44;4.45;;;2.67;;
19191;SDS011;9728;48.194;16.346;2023-04-27T23:25:49;7.30;;;2.92;;
19191;SDS011;9728;48.194;16.346;2023-04-27T23:30:53;4.38;;;3.15;;
19191;SDS011;9728;48.194;16.346;2023-04-27T23:35:56;3.55;;;2.35;;
19191;SDS011;9728;48.194;16.346;2023-04-27T23:41:01;4.15;;;3.03;;
19191;SDS011;9728;48.194;16.346;2023-04-27T23:46:06;4.30;;;2.53;;
19191;SDS011;9728;48.194;16.346;2023-04-27T23:51:11;3.35;;;2.40;;
19191;SDS011;9728;48.194;16.346;2023-04-27T23:56:16;4.63;;;2.55;;
